createdAt,value
2016-10-05T00:00:59.904Z,0
2016-10-05T00:01:59.873Z,0
2016-10-05T00:02:59.953Z,0
2016-10-05T00:03:59.902Z,0
2016-10-05T00:04:59.946Z,0
2016-10-05T00:05:59.932Z,0
2016-10-05T00:06:59.883Z,0
2016-10-05T00:07:59.893Z,0
2016-10-05T00:09:00.003Z,0
2016-10-05T00:09:59.930Z,0
2016-10-05T00:10:59.879Z,0
2016-10-05T00:11:59.917Z,0
2016-10-05T00:12:59.952Z,0
2016-10-05T00:13:59.902Z,0
2016-10-05T00:14:59.998Z,0
2016-10-05T00:15:59.902Z,0
2016-10-05T00:16:59.873Z,0
2016-10-05T00:17:59.916Z,0
2016-10-05T00:18:59.892Z,0
2016-10-05T00:19:59.888Z,0
2016-10-05T00:21:03.058Z,0
2016-10-05T00:21:59.890Z,0
2016-10-05T00:22:59.930Z,0
2016-10-05T00:23:59.925Z,0
2016-10-05T00:24:59.967Z,0
2016-10-05T00:25:59.918Z,0
2016-10-05T00:26:59.878Z,0
2016-10-05T00:27:59.906Z,0
2016-10-05T00:28:59.940Z,0
2016-10-05T00:29:59.899Z,0
2016-10-05T00:30:59.915Z,0
2016-10-05T00:31:59.931Z,0
2016-10-05T00:32:59.899Z,0
2016-10-05T00:33:59.999Z,0
2016-10-05T00:34:59.963Z,0
2016-10-05T00:35:59.918Z,0
2016-10-05T00:37:00.002Z,0
2016-10-05T00:37:59.966Z,0
2016-10-05T00:38:59.934Z,0
2016-10-05T00:40:00.004Z,0
2016-10-05T00:40:59.964Z,0
2016-10-05T00:41:59.991Z,0
2016-10-05T00:42:59.945Z,0
2016-10-05T00:43:59.952Z,0
2016-10-05T00:44:59.988Z,0
2016-10-05T00:46:00.027Z,0
2016-10-05T00:46:59.986Z,0
2016-10-05T00:48:01.239Z,0
2016-10-05T00:49:00.009Z,0
2016-10-05T00:50:00.022Z,0
2016-10-05T00:50:59.985Z,0
2016-10-05T00:51:59.973Z,0
2016-10-05T00:52:59.931Z,0
2016-10-05T00:53:59.940Z,0
2016-10-05T00:55:00.066Z,0
2016-10-05T00:55:59.909Z,0
2016-10-05T00:57:00.053Z,0
2016-10-05T00:57:59.946Z,0
2016-10-05T00:58:59.914Z,0
2016-10-05T00:59:59.957Z,0
2016-10-05T01:00:59.970Z,0
2016-10-05T01:01:59.922Z,0
2016-10-05T01:02:59.968Z,0
2016-10-05T01:03:59.924Z,0
2016-10-05T01:04:59.966Z,0
2016-10-05T01:05:59.943Z,0
2016-10-05T01:07:00.015Z,0
2016-10-05T01:08:00.002Z,0
2016-10-05T01:09:00.058Z,0
2016-10-05T01:09:59.969Z,0
2016-10-05T01:10:59.921Z,0
2016-10-05T01:11:59.939Z,0
2016-10-05T01:12:59.945Z,0
2016-10-05T01:13:59.968Z,0
2016-10-05T01:14:59.939Z,0
2016-10-05T01:16:00.042Z,0
2016-10-05T01:17:00.025Z,0
2016-10-05T01:17:59.934Z,0
2016-10-05T01:18:59.977Z,0
2016-10-05T01:20:00.051Z,0
2016-10-05T01:21:00.049Z,0
2016-10-05T01:21:59.938Z,0
2016-10-05T01:22:59.944Z,0
2016-10-05T01:23:59.999Z,0
2016-10-05T01:24:59.960Z,0
2016-10-05T01:25:59.950Z,0
2016-10-05T01:26:59.980Z,0
2016-10-05T01:27:59.958Z,0
2016-10-05T01:28:59.962Z,0
2016-10-05T01:29:59.948Z,0
2016-10-05T01:31:00.033Z,0
2016-10-05T01:31:59.956Z,0
2016-10-05T01:32:59.962Z,0
2016-10-05T01:33:59.958Z,0
2016-10-05T01:34:59.959Z,0
2016-10-05T01:35:59.973Z,0
2016-10-05T01:36:59.929Z,0
2016-10-05T01:37:59.951Z,0
2016-10-05T01:38:59.945Z,0
2016-10-05T01:39:59.956Z,0
2016-10-05T01:40:59.972Z,0
2016-10-05T01:41:59.958Z,0
2016-10-05T01:42:59.988Z,0
2016-10-05T01:43:59.951Z,0
2016-10-05T01:44:59.920Z,0
2016-10-05T01:45:59.956Z,0
2016-10-05T01:47:00.052Z,0
2016-10-05T01:47:59.979Z,0
2016-10-05T01:49:00.015Z,0
2016-10-05T01:49:59.939Z,0
2016-10-05T01:50:59.958Z,0
2016-10-05T01:52:00.005Z,0
2016-10-05T01:52:59.967Z,0
2016-10-05T01:53:59.995Z,0
2016-10-05T01:54:59.924Z,0
2016-10-05T01:55:59.934Z,0
2016-10-05T01:56:59.984Z,0
2016-10-05T01:57:59.945Z,0
2016-10-05T01:58:59.947Z,0
2016-10-05T02:00:00.033Z,0
2016-10-05T02:00:59.937Z,0
2016-10-05T02:01:59.957Z,0
2016-10-05T02:02:59.961Z,0
2016-10-05T02:04:00.038Z,0
2016-10-05T02:05:00.018Z,0
2016-10-05T02:06:00.120Z,0
2016-10-05T02:07:00.016Z,0
2016-10-05T02:08:00.037Z,0
2016-10-05T02:09:00.007Z,0
2016-10-05T02:10:00.083Z,0
2016-10-05T02:11:00.029Z,0
2016-10-05T02:12:00.052Z,0
2016-10-05T02:13:00.006Z,0
2016-10-05T02:13:59.978Z,0
2016-10-05T02:14:59.971Z,0
2016-10-05T02:15:59.979Z,0
2016-10-05T02:17:00.070Z,0
2016-10-05T02:18:00.025Z,0
2016-10-05T02:19:00.240Z,0
2016-10-05T02:20:00.011Z,0
2016-10-05T02:21:00.014Z,0
2016-10-05T02:22:00.002Z,0
2016-10-05T02:22:59.971Z,0
2016-10-05T02:24:00.020Z,0
2016-10-05T02:24:59.983Z,0
2016-10-05T02:25:59.980Z,0
2016-10-05T02:26:59.986Z,0
2016-10-05T02:27:59.982Z,0
2016-10-05T02:29:00.073Z,0
2016-10-05T02:30:00.057Z,0
2016-10-05T02:31:00.050Z,0
2016-10-05T02:32:00.032Z,0
2016-10-05T02:33:00.007Z,0
2016-10-05T02:34:00.030Z,0
2016-10-05T02:35:00.016Z,0
2016-10-05T02:36:00.011Z,0
2016-10-05T02:36:59.976Z,0
2016-10-05T02:38:00.071Z,0
2016-10-05T02:39:00.017Z,0
2016-10-05T02:40:00.021Z,0
2016-10-05T02:41:00.050Z,0
2016-10-05T02:42:00.036Z,0
2016-10-05T02:43:00.064Z,0
2016-10-05T02:44:00.068Z,0
2016-10-05T02:45:00.021Z,0
2016-10-05T02:46:00.008Z,0
2016-10-05T02:47:00.074Z,0
2016-10-05T02:48:00.020Z,0
2016-10-05T02:49:00.968Z,0
2016-10-05T02:50:00.007Z,0
2016-10-05T02:51:00.039Z,0
2016-10-05T02:52:00.050Z,0
2016-10-05T02:53:00.007Z,0
2016-10-05T02:54:00.033Z,0
2016-10-05T02:55:00.010Z,0
2016-10-05T02:56:00.028Z,0
2016-10-05T02:57:00.200Z,0
2016-10-05T02:58:00.044Z,0
2016-10-05T02:59:00.047Z,0
2016-10-05T03:00:00.091Z,0
2016-10-05T03:01:00.093Z,0
2016-10-05T03:02:00.016Z,0
2016-10-05T03:03:00.095Z,0
2016-10-05T03:03:59.997Z,0
2016-10-05T03:05:00.260Z,0
2016-10-05T03:06:00.195Z,0
2016-10-05T03:07:00.011Z,0
2016-10-05T03:08:00.032Z,0
2016-10-05T03:09:00.004Z,0
2016-10-05T03:10:00.025Z,0
2016-10-05T03:11:00.000Z,0
2016-10-05T03:11:59.994Z,0
2016-10-05T03:13:00.085Z,0
2016-10-05T03:14:00.199Z,0
2016-10-05T03:15:00.056Z,0
2016-10-05T03:16:00.093Z,0
2016-10-05T03:17:00.067Z,0
2016-10-05T03:18:00.007Z,0
2016-10-05T03:19:00.048Z,0
2016-10-05T03:20:00.035Z,0
2016-10-05T03:21:00.077Z,0
2016-10-05T03:22:00.051Z,0
2016-10-05T03:23:00.037Z,0
2016-10-05T03:24:00.063Z,0
2016-10-05T03:25:00.039Z,0
2016-10-05T03:26:00.023Z,0
2016-10-05T03:27:00.032Z,0
2016-10-05T03:28:00.069Z,0
2016-10-05T03:29:00.045Z,0
2016-10-05T03:30:00.090Z,0
2016-10-05T03:31:00.065Z,0
2016-10-05T03:32:00.039Z,0
2016-10-05T03:33:00.014Z,0
2016-10-05T03:34:00.045Z,0
2016-10-05T03:35:00.055Z,0
2016-10-05T03:36:00.046Z,0
2016-10-05T03:37:00.045Z,0
2016-10-05T03:38:00.058Z,0
2016-10-05T03:39:00.094Z,0
2016-10-05T03:40:00.021Z,0
2016-10-05T03:41:00.027Z,0
2016-10-05T03:42:00.073Z,0
2016-10-05T03:43:00.035Z,0
2016-10-05T03:44:00.052Z,0
2016-10-05T03:45:00.053Z,0
2016-10-05T03:46:00.065Z,0
2016-10-05T03:47:00.054Z,0
2016-10-05T03:48:00.132Z,0
2016-10-05T03:49:00.109Z,0
2016-10-05T03:50:00.051Z,0
2016-10-05T03:51:00.034Z,0
2016-10-05T03:52:00.036Z,0
2016-10-05T03:53:00.077Z,0
2016-10-05T03:54:00.024Z,0
2016-10-05T03:55:00.556Z,0
2016-10-05T03:56:00.046Z,0
2016-10-05T03:57:00.106Z,0
2016-10-05T03:58:00.099Z,0
2016-10-05T03:59:00.089Z,0
2016-10-05T04:00:00.096Z,0
2016-10-05T04:01:00.125Z,0
2016-10-05T04:02:00.055Z,0
2016-10-05T04:03:00.055Z,0
2016-10-05T04:04:00.087Z,0
2016-10-05T04:05:00.090Z,0
2016-10-05T04:06:00.104Z,0
2016-10-05T04:07:00.072Z,0
2016-10-05T04:08:00.098Z,0
2016-10-05T04:09:00.150Z,0
2016-10-05T04:10:00.145Z,0
2016-10-05T04:11:00.084Z,0
2016-10-05T04:12:00.090Z,0
2016-10-05T04:13:00.068Z,0
2016-10-05T04:14:00.149Z,0
2016-10-05T04:15:00.073Z,0
2016-10-05T04:16:00.078Z,0
2016-10-05T04:17:00.125Z,0
2016-10-05T04:18:00.077Z,0
2016-10-05T04:19:00.091Z,0
2016-10-05T04:20:00.125Z,0
2016-10-05T04:21:00.088Z,0
2016-10-05T04:22:00.052Z,0
2016-10-05T04:23:00.077Z,0
2016-10-05T04:24:00.079Z,0
2016-10-05T04:25:00.147Z,0
2016-10-05T04:26:00.094Z,0
2016-10-05T04:27:00.133Z,0
2016-10-05T04:28:00.099Z,0
2016-10-05T04:29:00.105Z,0
2016-10-05T04:30:00.076Z,0
2016-10-05T04:31:00.067Z,0
2016-10-05T04:32:00.121Z,0
2016-10-05T04:33:00.083Z,0
2016-10-05T04:34:00.079Z,0
2016-10-05T04:35:00.056Z,0
2016-10-05T04:36:00.080Z,0
2016-10-05T04:37:00.098Z,0
2016-10-05T04:38:00.117Z,0
2016-10-05T04:39:00.066Z,0
2016-10-05T04:40:00.079Z,0
2016-10-05T04:41:00.054Z,0
2016-10-05T04:42:00.098Z,0
2016-10-05T04:43:00.050Z,0
2016-10-05T04:44:00.097Z,0
2016-10-05T04:45:00.136Z,0
2016-10-05T04:46:00.080Z,0
2016-10-05T04:47:00.146Z,0
2016-10-05T04:48:00.078Z,0
2016-10-05T04:49:00.073Z,0
2016-10-05T04:50:00.311Z,0
2016-10-05T04:51:00.063Z,0
2016-10-05T04:52:01.430Z,0
2016-10-05T04:53:00.289Z,0
2016-10-05T04:54:00.548Z,0
2016-10-05T04:55:00.241Z,0
2016-10-05T04:56:00.238Z,0
2016-10-05T04:57:00.142Z,0
2016-10-05T04:58:00.102Z,0
2016-10-05T04:59:00.109Z,0
2016-10-05T05:00:00.106Z,0
2016-10-05T05:01:00.200Z,0
2016-10-05T05:02:00.087Z,0
2016-10-05T05:03:00.051Z,0
2016-10-05T05:04:00.068Z,4
2016-10-05T05:05:00.342Z,4
2016-10-05T05:06:00.115Z,0
2016-10-05T05:07:00.089Z,0
2016-10-05T05:08:00.094Z,4
2016-10-05T05:09:00.168Z,4
2016-10-05T05:10:00.076Z,4
2016-10-05T05:11:00.066Z,4
2016-10-05T05:12:00.137Z,8
2016-10-05T05:13:00.076Z,8
2016-10-05T05:14:00.078Z,12
2016-10-05T05:15:00.140Z,12
2016-10-05T05:16:00.130Z,16
2016-10-05T05:17:00.104Z,16
2016-10-05T05:18:00.072Z,20
2016-10-05T05:19:02.457Z,24
2016-10-05T05:20:00.099Z,32
2016-10-05T05:21:00.185Z,36
2016-10-05T05:22:00.131Z,40
2016-10-05T05:23:00.094Z,48
2016-10-05T05:24:00.162Z,56
2016-10-05T05:25:00.109Z,64
2016-10-05T05:26:00.149Z,76
2016-10-05T05:27:00.182Z,88
2016-10-05T05:28:00.133Z,96
2016-10-05T05:29:00.197Z,112
2016-10-05T05:30:00.172Z,124
2016-10-05T05:31:00.779Z,140
2016-10-05T05:32:00.255Z,156
2016-10-05T05:33:00.139Z,176
2016-10-05T05:34:00.203Z,192
2016-10-05T05:35:00.187Z,212
2016-10-05T05:36:00.249Z,236
2016-10-05T05:37:00.121Z,256
2016-10-05T05:38:00.777Z,284
2016-10-05T05:39:00.100Z,308
2016-10-05T05:40:00.121Z,336
2016-10-05T05:41:00.165Z,364
2016-10-05T05:42:00.230Z,392
2016-10-05T05:43:00.133Z,420
2016-10-05T05:44:00.162Z,452
2016-10-05T05:45:00.256Z,484
2016-10-05T05:46:00.418Z,512
2016-10-05T05:47:00.349Z,548
2016-10-05T05:48:00.102Z,576
2016-10-05T05:49:00.176Z,612
2016-10-05T05:50:00.163Z,648
2016-10-05T05:51:00.154Z,676
2016-10-05T05:52:00.261Z,712
2016-10-05T05:53:00.327Z,748
2016-10-05T05:54:00.438Z,780
2016-10-05T05:55:00.708Z,812
2016-10-05T05:56:01.181Z,844
2016-10-05T05:57:00.341Z,880
2016-10-05T05:58:00.344Z,912
2016-10-05T05:59:00.150Z,944
2016-10-05T06:00:00.107Z,976
2016-10-05T06:01:00.166Z,1008
2016-10-05T06:02:00.165Z,1040
2016-10-05T06:03:00.187Z,1072
2016-10-05T06:04:00.180Z,1100
2016-10-05T06:05:00.184Z,1128
2016-10-05T06:06:00.227Z,1156
2016-10-05T06:07:00.142Z,1188
2016-10-05T06:08:00.118Z,1216
2016-10-05T06:09:00.172Z,1248
2016-10-05T06:10:00.178Z,1276
2016-10-05T06:11:00.154Z,1304
2016-10-05T06:12:00.176Z,1332
2016-10-05T06:13:00.163Z,1360
2016-10-05T06:14:00.184Z,1388
2016-10-05T06:15:00.750Z,1416
2016-10-05T06:16:00.424Z,1444
2016-10-05T06:17:00.123Z,1468
2016-10-05T06:18:00.164Z,1496
2016-10-05T06:19:00.187Z,1524
2016-10-05T06:20:00.184Z,1548
2016-10-05T06:21:00.159Z,1576
2016-10-05T06:22:00.252Z,1600
2016-10-05T06:23:00.135Z,1628
2016-10-05T06:24:00.209Z,1652
2016-10-05T06:25:00.194Z,1672
2016-10-05T06:26:00.197Z,1696
2016-10-05T06:27:00.168Z,1720
2016-10-05T06:28:00.154Z,1744
2016-10-05T06:29:00.143Z,1764
2016-10-05T06:30:00.181Z,1784
2016-10-05T06:31:00.187Z,1808
2016-10-05T06:32:00.195Z,1828
2016-10-05T06:33:00.161Z,1852
2016-10-05T06:34:00.191Z,1876
2016-10-05T06:35:00.167Z,1896
2016-10-05T06:36:00.183Z,1916
2016-10-05T06:37:00.179Z,1940
2016-10-05T06:38:00.174Z,1960
2016-10-05T06:39:00.202Z,1976
2016-10-05T06:40:00.181Z,1996
2016-10-05T06:41:00.203Z,2016
2016-10-05T06:42:00.243Z,2036
2016-10-05T06:43:00.161Z,2056
2016-10-05T06:44:00.136Z,2076
2016-10-05T06:45:00.177Z,2096
2016-10-05T06:46:00.206Z,2112
2016-10-05T06:47:00.169Z,2128
2016-10-05T06:48:00.190Z,2144
2016-10-05T06:49:00.184Z,2164
2016-10-05T06:50:00.175Z,2176
2016-10-05T06:51:00.198Z,2188
2016-10-05T06:52:00.200Z,2200
2016-10-05T06:53:00.201Z,2212
2016-10-05T06:54:00.183Z,2220
2016-10-05T06:55:00.180Z,2232
2016-10-05T06:56:00.216Z,2248
2016-10-05T06:57:00.290Z,2260
2016-10-05T06:58:00.196Z,2272
2016-10-05T06:59:00.245Z,2284
2016-10-05T07:00:00.245Z,2296
2016-10-05T07:01:00.260Z,2312
2016-10-05T07:02:00.198Z,2320
2016-10-05T07:03:00.311Z,2332
2016-10-05T07:04:00.215Z,2340
2016-10-05T07:05:00.174Z,2352
2016-10-05T07:06:00.171Z,2360
2016-10-05T07:07:00.184Z,2372
2016-10-05T07:08:00.190Z,2384
2016-10-05T07:09:00.212Z,2392
2016-10-05T07:10:00.205Z,2404
2016-10-05T07:11:00.220Z,2412
2016-10-05T07:12:00.179Z,2424
2016-10-05T07:13:00.185Z,2432
2016-10-05T07:14:00.307Z,2440
2016-10-05T07:15:00.219Z,2448
2016-10-05T07:16:00.246Z,2456
2016-10-05T07:17:00.212Z,2464
2016-10-05T07:18:00.174Z,2472
2016-10-05T07:19:00.210Z,2480
2016-10-05T07:20:00.193Z,2492
2016-10-05T07:21:00.194Z,2500
2016-10-05T07:22:00.216Z,2508
2016-10-05T07:23:00.244Z,2516
2016-10-05T07:24:00.208Z,2524
2016-10-05T07:25:00.229Z,2528
2016-10-05T07:26:00.203Z,2540
2016-10-05T07:27:00.517Z,2548
2016-10-05T07:28:00.284Z,2556
2016-10-05T07:29:00.223Z,2564
2016-10-05T07:30:00.171Z,2564
2016-10-05T07:31:00.291Z,2572
2016-10-05T07:32:00.213Z,2584
2016-10-05T07:33:00.242Z,2584
2016-10-05T07:34:00.188Z,2596
2016-10-05T07:35:00.226Z,2604
2016-10-05T07:36:00.226Z,2608
2016-10-05T07:37:00.189Z,2616
2016-10-05T07:38:00.367Z,2628
2016-10-05T07:39:00.261Z,2636
2016-10-05T07:40:00.242Z,2640
2016-10-05T07:41:00.310Z,2644
2016-10-05T07:42:00.227Z,2652
2016-10-05T07:43:00.212Z,2664
2016-10-05T07:44:00.220Z,2668
2016-10-05T07:45:00.261Z,2672
2016-10-05T07:46:00.266Z,2680
2016-10-05T07:47:00.256Z,2688
2016-10-05T07:48:00.226Z,2692
2016-10-05T07:49:00.246Z,2700
2016-10-05T07:50:00.237Z,2708
2016-10-05T07:51:00.273Z,2712
2016-10-05T07:52:00.247Z,2716
2016-10-05T07:53:00.219Z,2724
2016-10-05T07:54:00.355Z,2728
2016-10-05T07:55:00.240Z,2732
2016-10-05T07:56:00.306Z,2736
2016-10-05T07:57:00.239Z,2736
2016-10-05T07:58:00.231Z,2744
2016-10-05T07:59:00.238Z,2744
2016-10-05T08:00:00.220Z,2748
2016-10-05T08:01:00.195Z,2756
2016-10-05T08:02:00.189Z,2756
2016-10-05T08:03:00.428Z,2752
2016-10-05T08:04:00.240Z,2756
2016-10-05T08:05:00.601Z,2760
2016-10-05T08:06:00.225Z,2760
2016-10-05T08:07:00.246Z,2768
2016-10-05T08:08:00.206Z,2764
2016-10-05T08:09:00.272Z,2772
2016-10-05T08:10:00.532Z,2776
2016-10-05T08:11:00.317Z,2776
2016-10-05T08:12:00.763Z,2780
2016-10-05T08:13:00.705Z,2780
2016-10-05T08:14:00.254Z,2780
2016-10-05T08:15:01.124Z,2784
2016-10-05T08:16:00.814Z,2784
2016-10-05T08:17:00.311Z,2788
2016-10-05T08:18:00.701Z,2788
2016-10-05T08:19:00.782Z,2784
2016-10-05T08:20:00.618Z,2788
2016-10-05T08:21:00.420Z,2792
2016-10-05T08:22:00.281Z,2796
2016-10-05T08:23:00.550Z,2792
2016-10-05T08:24:00.642Z,2796
2016-10-05T08:25:00.363Z,2792
2016-10-05T08:26:00.394Z,2796
2016-10-05T08:27:00.515Z,2800
2016-10-05T08:28:00.379Z,2800
2016-10-05T08:29:00.383Z,2796
2016-10-05T08:30:00.242Z,2800
2016-10-05T08:31:00.573Z,2804
2016-10-05T08:32:00.510Z,2800
2016-10-05T08:33:00.894Z,2796
2016-10-05T08:34:00.490Z,2800
2016-10-05T08:35:00.517Z,2804
2016-10-05T08:36:00.463Z,2808
2016-10-05T08:37:00.744Z,2808
2016-10-05T08:38:00.327Z,2808
2016-10-05T08:39:00.564Z,2816
2016-10-05T08:40:00.386Z,2816
2016-10-05T08:41:00.278Z,2824
2016-10-05T08:42:00.443Z,2824
2016-10-05T08:43:00.498Z,2824
2016-10-05T08:44:00.519Z,2824
2016-10-05T08:45:00.562Z,2828
2016-10-05T08:46:00.488Z,2828
2016-10-05T08:47:00.433Z,2836
2016-10-05T08:48:00.581Z,2840
2016-10-05T08:49:00.317Z,2836
2016-10-05T08:50:00.363Z,2836
2016-10-05T08:51:00.487Z,2840
2016-10-05T08:52:00.527Z,2840
2016-10-05T08:53:00.402Z,2840
2016-10-05T08:54:00.274Z,2844
2016-10-05T08:55:00.254Z,2852
2016-10-05T08:56:00.264Z,2856
2016-10-05T08:57:00.261Z,2852
2016-10-05T08:58:00.306Z,2852
2016-10-05T08:59:00.542Z,2856
2016-10-05T09:00:00.428Z,2856
2016-10-05T09:01:00.486Z,2856
2016-10-05T09:02:01.001Z,2856
2016-10-05T09:03:00.582Z,2860
2016-10-05T09:04:00.968Z,2860
2016-10-05T09:05:00.480Z,2860
2016-10-05T09:06:00.357Z,2868
2016-10-05T09:07:00.306Z,2876
2016-10-05T09:08:00.349Z,2876
2016-10-05T09:09:00.325Z,2872
2016-10-05T09:10:00.338Z,2876
2016-10-05T09:11:00.336Z,2872
2016-10-05T09:12:00.313Z,2872
2016-10-05T09:13:00.320Z,2872
2016-10-05T09:14:00.284Z,2884
2016-10-05T09:15:00.335Z,2888
2016-10-05T09:16:00.390Z,2892
2016-10-05T09:17:00.502Z,2900
2016-10-05T09:18:00.370Z,2904
2016-10-05T09:19:00.312Z,2912
2016-10-05T09:20:00.315Z,2920
2016-10-05T09:21:00.319Z,2924
2016-10-05T09:22:00.325Z,2916
2016-10-05T09:23:00.345Z,2904
2016-10-05T09:24:00.357Z,2908
2016-10-05T09:25:00.299Z,2916
2016-10-05T09:26:00.293Z,2916
2016-10-05T09:27:00.353Z,2920
2016-10-05T09:28:00.334Z,2916
2016-10-05T09:29:00.309Z,2916
2016-10-05T09:30:00.336Z,2924
2016-10-05T09:31:00.286Z,2920
2016-10-05T09:32:00.304Z,2924
2016-10-05T09:33:00.329Z,2932
2016-10-05T09:34:00.306Z,2936
2016-10-05T09:35:00.297Z,2932
2016-10-05T09:36:00.346Z,2924
2016-10-05T09:37:00.303Z,2928
2016-10-05T09:38:00.481Z,2928
2016-10-05T09:39:00.303Z,2932
2016-10-05T09:40:00.297Z,2936
2016-10-05T09:41:01.585Z,2940
2016-10-05T09:42:00.389Z,2944
2016-10-05T09:43:00.357Z,2948
2016-10-05T09:44:00.316Z,2960
2016-10-05T09:45:00.351Z,2964
2016-10-05T09:46:00.294Z,2984
2016-10-05T09:47:00.308Z,2988
2016-10-05T09:48:00.370Z,3000
2016-10-05T09:49:00.344Z,3016
2016-10-05T09:50:00.376Z,3012
2016-10-05T09:51:00.299Z,3016
2016-10-05T09:52:00.361Z,3020
2016-10-05T09:53:00.341Z,3024
2016-10-05T09:54:00.377Z,3028
2016-10-05T09:55:00.411Z,3032
2016-10-05T09:56:00.328Z,3084
2016-10-05T09:57:00.395Z,3200
2016-10-05T09:58:01.005Z,3440
2016-10-05T09:59:00.362Z,3892
2016-10-05T10:00:00.446Z,3440
2016-10-05T10:01:00.368Z,3208
2016-10-05T10:02:00.360Z,3256
2016-10-05T10:03:00.318Z,3340
2016-10-05T10:04:00.388Z,3504
2016-10-05T10:05:00.303Z,3600
2016-10-05T10:06:00.398Z,3680
2016-10-05T10:07:00.428Z,3664
2016-10-05T10:08:00.318Z,3348
2016-10-05T10:09:00.354Z,4028
2016-10-05T10:10:00.379Z,3700
2016-10-05T10:11:00.379Z,3760
2016-10-05T10:12:00.319Z,3900
2016-10-05T10:13:00.351Z,3552
2016-10-05T10:14:00.423Z,3480
2016-10-05T10:15:00.466Z,3684
2016-10-05T10:16:00.359Z,4336
2016-10-05T10:17:00.430Z,4608
2016-10-05T10:18:00.409Z,5292
2016-10-05T10:19:00.380Z,6116
2016-10-05T10:20:00.581Z,5620
2016-10-05T10:21:00.384Z,4872
2016-10-05T10:22:00.383Z,4864
2016-10-05T10:23:00.340Z,6168
2016-10-05T10:24:00.718Z,7524
2016-10-05T10:25:00.369Z,8268
2016-10-05T10:26:00.353Z,9472
2016-10-05T10:27:00.411Z,9472
2016-10-05T10:28:00.631Z,7908
2016-10-05T10:29:00.393Z,6632
2016-10-05T10:30:00.374Z,7700
2016-10-05T10:31:00.388Z,9036
2016-10-05T10:32:00.421Z,7836
2016-10-05T10:33:00.896Z,6520
2016-10-05T10:34:00.411Z,5812
2016-10-05T10:35:00.433Z,5800
2016-10-05T10:36:00.353Z,5940
2016-10-05T10:37:00.392Z,5752
2016-10-05T10:38:00.366Z,6156
2016-10-05T10:39:00.389Z,5800
2016-10-05T10:40:00.394Z,5588
2016-10-05T10:41:00.394Z,3972
2016-10-05T10:42:00.375Z,3944
2016-10-05T10:43:00.458Z,3980
2016-10-05T10:44:00.391Z,3964
2016-10-05T10:45:00.378Z,4416
2016-10-05T10:46:00.439Z,4668
2016-10-05T10:47:00.410Z,5024
2016-10-05T10:48:00.407Z,5312
2016-10-05T10:49:00.408Z,4952
2016-10-05T10:50:00.387Z,5500
2016-10-05T10:51:00.378Z,7024
2016-10-05T10:52:00.380Z,7980
2016-10-05T10:53:00.393Z,7352
2016-10-05T10:54:00.395Z,8460
2016-10-05T10:55:00.429Z,6532
2016-10-05T10:56:00.426Z,7776
2016-10-05T10:57:00.425Z,8076
2016-10-05T10:58:00.399Z,7688
2016-10-05T10:59:00.390Z,7920
2016-10-05T11:00:00.398Z,9088
2016-10-05T11:01:00.367Z,9232
2016-10-05T11:02:00.470Z,10232
2016-10-05T11:03:00.445Z,10732
2016-10-05T11:04:01.301Z,9312
2016-10-05T11:05:00.461Z,8660
2016-10-05T11:06:00.400Z,6872
2016-10-05T11:07:00.751Z,6628
2016-10-05T11:08:00.377Z,6540
2016-10-05T11:09:00.454Z,5972
2016-10-05T11:10:00.471Z,5248
2016-10-05T11:11:00.386Z,5912
2016-10-05T11:12:01.762Z,5016
2016-10-05T11:13:00.364Z,4852
2016-10-05T11:14:00.467Z,5724
2016-10-05T11:15:00.768Z,6864
2016-10-05T11:16:00.825Z,5720
2016-10-05T11:17:00.488Z,4520
2016-10-05T11:18:00.499Z,4044
2016-10-05T11:19:00.414Z,3796
2016-10-05T11:20:00.402Z,3736
2016-10-05T11:21:00.388Z,3684
2016-10-05T11:22:00.397Z,3696
2016-10-05T11:23:00.396Z,3968
2016-10-05T11:24:00.493Z,3820
2016-10-05T11:25:00.421Z,4036
2016-10-05T11:26:00.458Z,4580
2016-10-05T11:27:00.479Z,4808
2016-10-05T11:28:00.434Z,4676
2016-10-05T11:29:00.434Z,4592
2016-10-05T11:30:00.485Z,4960
2016-10-05T11:31:00.439Z,4656
2016-10-05T11:32:00.434Z,4660
2016-10-05T11:33:00.709Z,4708
2016-10-05T11:34:00.522Z,5040
2016-10-05T11:35:00.655Z,5096
2016-10-05T11:36:00.371Z,5344
2016-10-05T11:37:00.439Z,5552
2016-10-05T11:38:00.525Z,5376
2016-10-05T11:39:01.053Z,5548
2016-10-05T11:40:00.507Z,5296
2016-10-05T11:41:00.415Z,5608
2016-10-05T11:42:00.544Z,5736
2016-10-05T11:43:01.223Z,5652
2016-10-05T11:44:00.804Z,6636
2016-10-05T11:45:01.247Z,6904
2016-10-05T11:46:01.360Z,8012
2016-10-05T11:47:01.232Z,9388
2016-10-05T11:48:00.611Z,10592
2016-10-05T11:49:00.834Z,9728
2016-10-05T11:50:00.451Z,10700
2016-10-05T11:51:00.429Z,11824
2016-10-05T11:52:03.597Z,12864
2016-10-05T11:53:03.677Z,12256
2016-10-05T11:54:01.686Z,11344
2016-10-05T11:55:00.458Z,10388
2016-10-05T11:56:00.636Z,10016
2016-10-05T11:57:00.893Z,8572
2016-10-05T11:58:01.222Z,8440
2016-10-05T11:59:01.388Z,8680
2016-10-05T12:00:00.535Z,8476
2016-10-05T12:01:00.447Z,8892
2016-10-05T12:02:00.865Z,9880
2016-10-05T12:03:00.553Z,10472
2016-10-05T12:04:00.518Z,10984
2016-10-05T12:05:00.566Z,10036
2016-10-05T12:06:00.539Z,6900
2016-10-05T12:07:00.607Z,6040
2016-10-05T12:08:00.552Z,5780
2016-10-05T12:09:00.649Z,5108
2016-10-05T12:10:00.483Z,5092
2016-10-05T12:11:00.531Z,5604
2016-10-05T12:12:00.482Z,6640
2016-10-05T12:13:00.546Z,7828
2016-10-05T12:14:00.463Z,8504
2016-10-05T12:15:00.573Z,8104
2016-10-05T12:16:00.454Z,6320
2016-10-05T12:17:00.546Z,4956
2016-10-05T12:18:00.511Z,4956
2016-10-05T12:19:00.471Z,6312
2016-10-05T12:20:00.518Z,6280
2016-10-05T12:21:00.458Z,6176
2016-10-05T12:22:00.489Z,7112
2016-10-05T12:23:00.467Z,7344
2016-10-05T12:24:00.504Z,6276
2016-10-05T12:25:00.877Z,6624
2016-10-05T12:26:00.475Z,7380
2016-10-05T12:27:00.452Z,8172
2016-10-05T12:28:00.461Z,8948
2016-10-05T12:29:00.585Z,7944
2016-10-05T12:30:00.625Z,6148
2016-10-05T12:31:00.493Z,6512
2016-10-05T12:32:00.506Z,6320
2016-10-05T12:33:00.522Z,5700
2016-10-05T12:34:00.499Z,5772
2016-10-05T12:35:00.497Z,5460
2016-10-05T12:36:00.529Z,4824
2016-10-05T12:37:00.567Z,4372
2016-10-05T12:38:00.577Z,4008
2016-10-05T12:39:00.462Z,3960
2016-10-05T12:40:00.486Z,3308
2016-10-05T12:41:00.490Z,3260
2016-10-05T12:42:00.484Z,3256
2016-10-05T12:43:00.666Z,3376
2016-10-05T12:44:00.780Z,3536
2016-10-05T12:45:00.577Z,3736
2016-10-05T12:46:00.578Z,3748
2016-10-05T12:47:00.495Z,4136
2016-10-05T12:48:00.544Z,3892
2016-10-05T12:49:00.542Z,4040
2016-10-05T12:50:00.534Z,4100
2016-10-05T12:51:00.522Z,4224
2016-10-05T12:52:00.542Z,4364
2016-10-05T12:53:00.625Z,4572
2016-10-05T12:54:00.567Z,4952
2016-10-05T12:55:00.530Z,5360
2016-10-05T12:56:00.522Z,6056
2016-10-05T12:57:00.596Z,7060
2016-10-05T12:58:00.505Z,7948
2016-10-05T12:59:00.624Z,8516
2016-10-05T13:00:00.544Z,8364
2016-10-05T13:01:00.584Z,9020
2016-10-05T13:02:00.514Z,8732
2016-10-05T13:03:00.601Z,8396
2016-10-05T13:04:00.971Z,8176
2016-10-05T13:05:00.582Z,7404
2016-10-05T13:06:00.576Z,6104
2016-10-05T13:07:00.546Z,5248
2016-10-05T13:08:00.559Z,4412
2016-10-05T13:09:00.493Z,4144
2016-10-05T13:10:00.530Z,4184
2016-10-05T13:11:00.583Z,3884
2016-10-05T13:12:00.592Z,3620
2016-10-05T13:13:00.637Z,3652
2016-10-05T13:14:00.527Z,3732
2016-10-05T13:15:00.561Z,3804
2016-10-05T13:16:00.603Z,4000
2016-10-05T13:17:00.547Z,3852
2016-10-05T13:18:00.542Z,3612
2016-10-05T13:19:00.545Z,3768
2016-10-05T13:20:00.605Z,3520
2016-10-05T13:21:00.589Z,3556
2016-10-05T13:22:00.548Z,3616
2016-10-05T13:23:00.594Z,3816
2016-10-05T13:24:00.622Z,4204
2016-10-05T13:25:00.613Z,4624
2016-10-05T13:26:00.590Z,5236
2016-10-05T13:27:00.562Z,6196
2016-10-05T13:28:00.849Z,7136
2016-10-05T13:29:00.564Z,7724
2016-10-05T13:30:00.600Z,7996
2016-10-05T13:31:00.527Z,7352
2016-10-05T13:32:00.661Z,6688
2016-10-05T13:33:00.571Z,7520
2016-10-05T13:34:00.637Z,9348
2016-10-05T13:35:00.803Z,10500
2016-10-05T13:36:00.539Z,10444
2016-10-05T13:37:00.856Z,9244
2016-10-05T13:38:00.610Z,8484
2016-10-05T13:39:00.544Z,7992
2016-10-05T13:40:00.606Z,7112
2016-10-05T13:41:00.489Z,6428
2016-10-05T13:42:00.500Z,6212
2016-10-05T13:43:00.505Z,5908
2016-10-05T13:44:00.587Z,6080
2016-10-05T13:45:00.886Z,6088
2016-10-05T13:46:00.606Z,5772
2016-10-05T13:47:00.593Z,5212
2016-10-05T13:48:00.495Z,4576
2016-10-05T13:49:00.510Z,3968
2016-10-05T13:50:00.644Z,3060
2016-10-05T13:51:00.512Z,2800
2016-10-05T13:52:00.537Z,2900